Time;durP1;ratioP1;P1;durP2;ratioP2;P2;SDS_P1;SDS_P2;PMS_P1;PMS_P2;Temp;Humidity;BMP_temperature;BMP_pressure;BME280_temperature;BME280_humidity;BME280_pressure;Samples;Min_cycle;Max_cycle;Signal;HPM_P1;HPM_P2
2021/08/02 00:02:28;;;;;;;14.27;13.27;;;13.50;89.60;;;;;;5043453;29;20171;-69
2021/08/02 00:05:04;;;;;;;15.13;14.02;;;13.50;89.70;;;;;;5047415;29;20407;-69
2021/08/02 00:07:40;;;;;;;14.38;13.38;;;13.50;89.50;;;;;;5027551;29;20085;-68
2021/08/02 00:10:14;;;;;;;14.95;13.75;;;13.50;89.60;;;;;;5049492;29;20048;-69
2021/08/02 00:12:55;;;;;;;14.57;13.48;;;13.50;89.60;;;;;;5035083;29;20056;-69
2021/08/02 00:15:28;;;;;;;14.43;13.43;;;13.50;89.70;;;;;;5047365;29;20060;-69
2021/08/02 00:18:00;;;;;;;14.30;13.30;;;13.50;89.60;;;;;;5045313;29;20135;-71
2021/08/02 00:20:34;;;;;;;14.60;13.50;;;13.50;89.70;;;;;;5049649;29;20048;-70
2021/08/02 00:23:09;;;;;;;15.07;13.65;;;13.50;89.50;;;;;;5045503;29;20136;-69
2021/08/02 00:25:41;;;;;;;14.40;13.30;;;13.50;89.50;;;;;;5046717;29;20176;-69
2021/08/02 00:28:15;;;;;;;14.95;13.70;;;13.50;89.20;;;;;;5049460;29;20108;-69
2021/08/02 00:30:47;;;;;;;14.40;13.30;;;13.40;89.60;;;;;;5045687;29;20045;-71
2021/08/02 00:33:19;;;;;;;15.48;14.25;;;13.50;90.00;;;;;;5046038;29;20068;-69
2021/08/02 00:36:01;;;;;;;14.93;13.93;;;13.40;89.70;;;;;;5045007;29;20052;-69
2021/08/02 00:38:41;;;;;;;15.15;13.95;;;13.40;89.70;;;;;;5046279;29;20053;-70
2021/08/02 00:41:27;;;;;;;14.60;13.60;;;13.40;89.50;;;;;;5044882;29;20209;-68
2021/08/02 00:44:42;;;;;;;14.75;13.50;;;13.40;89.10;;;;;;5038708;29;20049;-69
2021/08/02 00:47:21;;;;;;;14.90;13.70;;;13.40;89.90;;;;;;5042766;29;20048;-69
2021/08/02 00:49:56;;;;;;;;;;;13.40;89.90;;;;;;5033314;29;20060;-69
2021/08/02 00:52:31;;;;;;;14.40;13.40;;;13.40;90.10;;;;;;5043300;29;19927;-69
2021/08/02 00:55:04;;;;;;;14.45;13.45;;;13.40;90.00;;;;;;5039689;29;20053;-70
2021/08/02 00:57:40;;;;;;;15.30;14.10;;;13.40;89.80;;;;;;5037993;29;20060;-70
2021/08/02 01:00:15;;;;;;;14.77;13.77;;;13.40;89.70;;;;;;5049745;29;20522;-70
2021/08/02 01:02:54;;;;;;;14.95;13.75;;;13.40;89.80;;;;;;5033706;29;20100;-71
2021/08/02 01:05:26;;;;;;;15.65;14.30;;;13.40;89.90;;;;;;5031672;29;20055;-70
2021/08/02 01:08:07;;;;;;;14.52;13.52;;;13.50;90.00;;;;;;5050790;29;20160;-69
2021/08/02 01:10:45;;;;;;;15.25;14.15;;;13.40;90.10;;;;;;5051828;29;20081;-69
2021/08/02 01:13:21;;;;;;;15.15;14.13;;;13.40;90.10;;;;;;5039097;29;20057;-70
2021/08/02 01:15:58;;;;;;;15.02;13.93;;;13.40;90.00;;;;;;5032627;29;20053;-70
2021/08/02 01:18:33;;;;;;;15.60;14.50;;;13.40;90.20;;;;;;5050192;29;20039;-69
2021/08/02 01:21:11;;;;;;;15.63;14.52;;;13.40;90.10;;;;;;5046821;29;20105;-69
2021/08/02 01:23:46;;;;;;;15.30;14.02;;;13.40;90.10;;;;;;5050209;29;20104;-69
2021/08/02 01:26:44;;;;;;;15.13;14.07;;;13.40;89.90;;;;;;5047382;29;20451;-69
2021/08/02 01:29:58;;;;;;;15.20;13.98;;;13.40;90.00;;;;;;5046933;29;20080;-70
2021/08/02 01:32:34;;;;;;;15.90;14.70;;;13.40;90.00;;;;;;5038309;29;20582;-70
2021/08/02 01:35:13;;;;;;;15.25;14.25;;;13.40;89.80;;;;;;5036198;29;20052;-69
2021/08/02 01:37:48;;;;;;;15.68;14.48;;;13.40;89.80;;;;;;5052172;29;20103;-70
2021/08/02 01:40:23;;;;;;;16.15;14.95;;;13.40;90.00;;;;;;5042015;29;20515;-69
2021/08/02 01:42:57;;;;;;;15.82;14.73;;;13.30;89.80;;;;;;5034846;29;20036;-69
2021/08/02 01:45:41;;;;;;;15.68;14.57;;;13.30;90.10;;;;;;5046128;29;20033;-71
2021/08/02 01:48:55;;;;;;;16.13;14.93;;;13.30;90.10;;;;;;5054510;29;20143;-69
2021/08/02 01:51:42;;;;;;;15.70;14.40;;;13.20;90.20;;;;;;5041298;29;20573;-69
2021/08/02 01:54:44;;;;;;;15.48;14.40;;;13.20;90.10;;;;;;5053003;29;20925;-69
2021/08/02 01:57:34;;;;;;;15.25;14.05;;;13.20;89.70;;;;;;5032378;29;20488;-70
2021/08/02 02:00:20;;;;;;;15.50;14.25;;;13.20;90.00;;;;;;5033493;29;20492;-71
2021/08/02 02:03:11;;;;;;;15.70;14.50;;;13.10;90.20;;;;;;5044840;29;20041;-69
2021/08/02 02:05:57;;;;;;;15.38;14.27;;;13.10;90.20;;;;;;5030681;29;20049;-70
2021/08/02 02:08:35;;;;;;;16.40;14.88;;;13.10;90.20;;;;;;5050368;29;20507;-69
2021/08/02 02:11:16;;;;;;;14.73;13.63;;;13.10;89.20;;;;;;5041422;29;20041;-69
2021/08/02 02:13:58;;;;;;;15.00;13.95;;;13.00;88.80;;;;;;5025877;29;20164;-70
2021/08/02 02:16:32;;;;;;;15.13;13.93;;;13.00;89.50;;;;;;5031973;29;20059;-71
2021/08/02 02:19:08;;;;;;;15.07;13.98;;;13.00;89.00;;;;;;5035877;29;20052;-70
2021/08/02 02:21:41;;;;;;;14.80;13.70;;;13.00;89.00;;;;;;5040382;29;20049;-70
2021/08/02 02:24:17;;;;;;;15.02;13.90;;;13.10;88.80;;;;;;5038223;29;20033;-70
2021/08/02 02:26:52;;;;;;;14.63;13.50;;;13.00;88.60;;;;;;5047195;29;20833;-70
2021/08/02 02:29:26;;;;;;;14.82;13.73;;;13.00;88.60;;;;;;5046739;29;20068;-70
2021/08/02 02:32:00;;;;;;;15.30;14.10;;;13.00;88.70;;;;;;5038339;29;20044;-70
2021/08/02 02:34:36;;;;;;;15.20;14.10;;;13.00;88.70;;;;;;5037162;29;20071;-70
2021/08/02 02:37:09;;;;;;;14.95;13.85;;;12.90;88.30;;;;;;5045675;29;20430;-70
2021/08/02 02:39:43;;;;;;;15.07;13.88;;;12.90;88.30;;;;;;5025564;29;20044;-70
2021/08/02 02:42:15;;;;;;;14.82;13.73;;;12.90;88.30;;;;;;5043083;29;20160;-70
2021/08/02 02:44:49;;;;;;;14.25;13.25;;;12.80;88.00;;;;;;5049383;29;20045;-70
2021/08/02 02:47:22;;;;;;;14.63;13.52;;;12.70;88.00;;;;;;5030846;29;20528;-70
2021/08/02 02:49:56;;;;;;;14.55;13.55;;;12.70;88.50;;;;;;5049174;29;20554;-69
2021/08/02 02:52:29;;;;;;;14.30;13.30;;;12.70;88.80;;;;;;5037075;29;20055;-70
2021/08/02 02:55:02;;;;;;;14.35;13.25;;;12.70;88.80;;;;;;5051399;29;20135;-69
2021/08/02 02:57:38;;;;;;;15.15;14.05;;;12.60;89.00;;;;;;5048409;29;20060;-69
2021/08/02 03:00:10;;;;;;;14.65;13.55;;;12.70;89.10;;;;;;5048930;29;20805;-70
2021/08/02 03:02:43;;;;;;;14.52;13.43;;;12.70;89.00;;;;;;5026059;29;20041;-70
2021/08/02 03:05:20;;;;;;;13.68;12.57;;;12.70;88.80;;;;;;5047161;29;20196;-69
2021/08/02 03:07:55;;;;;;;13.73;12.73;;;12.70;88.20;;;;;;5049188;29;20048;-70
2021/08/02 03:10:28;;;;;;;14.52;13.20;;;12.60;88.40;;;;;;5033723;29;20707;-70
2021/08/02 03:13:02;;;;;;;13.65;12.60;;;12.50;89.00;;;;;;5039491;29;20602;-69
2021/08/02 03:15:35;;;;;;;13.90;12.70;;;12.50;89.00;;;;;;5049080;29;20057;-69
2021/08/02 03:18:06;;;;;;;13.77;12.77;;;12.50;88.80;;;;;;5048448;29;20076;-69
2021/08/02 03:20:40;;;;;;;13.65;12.57;;;12.50;88.90;;;;;;5048788;29;20147;-69
2021/08/02 03:23:16;;;;;;;13.38;12.27;;;12.50;88.60;;;;;;5036728;29;20060;-69
2021/08/02 03:26:04;;;;;;;15.10;13.95;;;12.50;88.90;;;;;;5047815;29;20045;-70
2021/08/02 03:28:45;;;;;;;13.75;12.75;;;12.50;88.70;;;;;;5046515;29;20467;-69
2021/08/02 03:31:26;;;;;;;14.27;13.27;;;12.40;88.40;;;;;;5032378;29;20520;-69
2021/08/02 03:34:01;;;;;;;14.38;13.27;;;12.40;88.50;;;;;;5047770;29;20116;-68
2021/08/02 03:36:33;;;;;;;14.63;13.43;;;12.30;89.50;;;;;;5026340;29;20143;-69
2021/08/02 03:39:05;;;;;;;14.13;13.00;;;12.30;88.80;;;;;;5048924;29;20052;-69
2021/08/02 03:41:41;;;;;;;14.80;13.70;;;12.30;88.90;;;;;;5048720;29;20064;-70
2021/08/02 03:44:14;;;;;;;14.82;13.52;;;12.30;88.70;;;;;;5047581;29;20044;-69
2021/08/02 03:46:46;;;;;;;13.57;12.57;;;12.30;87.80;;;;;;5047033;29;20044;-69
2021/08/02 03:49:18;;;;;;;14.38;13.27;;;12.30;88.40;;;;;;5049487;29;20056;-70
2021/08/02 03:51:59;;;;;;;14.48;13.48;;;12.30;88.40;;;;;;5047177;29;20110;-69
2021/08/02 03:54:31;;;;;;;14.20;13.15;;;12.30;88.50;;;;;;5048266;29;20060;-70
2021/08/02 03:57:04;;;;;;;14.95;13.75;;;12.30;88.60;;;;;;5045515;29;20045;-70
2021/08/02 03:59:36;;;;;;;14.50;13.50;;;12.30;88.40;;;;;;5048914;29;20053;-69
2021/08/02 04:02:08;;;;;;;15.02;13.88;;;12.20;88.20;;;;;;5047694;29;20060;-69
2021/08/02 04:04:40;;;;;;;15.02;13.93;;;12.20;88.30;;;;;;5048577;29;20075;-69
2021/08/02 04:07:12;;;;;;;14.90;13.85;;;12.20;88.10;;;;;;5048474;29;20041;-69
2021/08/02 04:09:44;;;;;;;14.70;13.60;;;12.20;88.60;;;;;;5047489;29;20052;-69
2021/08/02 04:12:16;;;;;;;14.85;13.75;;;12.20;88.70;;;;;;5047418;29;20044;-70
2021/08/02 04:14:48;;;;;;;14.75;13.75;;;12.20;88.50;;;;;;5046803;29;20109;-69
2021/08/02 04:17:20;;;;;;;14.90;13.80;;;12.20;88.50;;;;;;5045921;29;20438;-70
2021/08/02 04:19:51;;;;;;;14.55;13.45;;;12.20;88.30;;;;;;5031808;29;20457;-70
2021/08/02 04:22:23;;;;;;;15.02;13.93;;;12.20;88.40;;;;;;5047563;29;20053;-69
2021/08/02 04:24:55;;;;;;;14.10;13.00;;;12.20;88.40;;;;;;5021465;29;20420;-69
2021/08/02 04:27:28;;;;;;;14.57;13.38;;;12.20;88.60;;;;;;5031737;29;20045;-69
2021/08/02 04:30:00;;;;;;;14.10;13.00;;;12.10;88.30;;;;;;5043732;29;20048;-69
2021/08/02 04:32:32;;;;;;;14.20;13.10;;;12.10;88.00;;;;;;5047621;29;20048;-70
2021/08/02 04:35:04;;;;;;;13.38;12.43;;;12.10;87.90;;;;;;5045495;29;20101;-69
2021/08/02 04:37:36;;;;;;;13.88;12.88;;;12.00;87.50;;;;;;5042766;29;20049;-68
2021/08/02 04:40:08;;;;;;;14.30;13.25;;;12.00;87.60;;;;;;5043803;29;20436;-69
2021/08/02 04:42:40;;;;;;;14.05;12.95;;;12.00;87.80;;;;;;5046204;29;20053;-69
2021/08/02 04:45:13;;;;;;;13.15;12.10;;;11.90;88.10;;;;;;5043462;29;20052;-69
2021/08/02 04:47:45;;;;;;;13.10;12.20;;;11.90;88.20;;;;;;5045424;29;20516;-69
2021/08/02 04:50:18;;;;;;;14.25;13.10;;;11.90;88.20;;;;;;5036934;29;20110;-70
2021/08/02 04:52:50;;;;;;;13.60;12.43;;;11.90;88.40;;;;;;5047924;29;20052;-69
2021/08/02 04:55:22;;;;;;;13.95;12.95;;;12.00;88.40;;;;;;5046144;29;20692;-69
2021/08/02 04:57:54;;;;;;;13.98;12.88;;;12.10;88.30;;;;;;5044942;29;20053;-69
2021/08/02 05:00:31;;;;;;;13.98;12.98;;;12.20;88.00;;;;;;5045637;29;20093;-70
2021/08/02 05:03:03;;;;;;;13.75;12.75;;;12.30;87.40;;;;;;5049020;29;20041;-69
2021/08/02 05:05:35;;;;;;;12.98;12.07;;;12.30;87.10;;;;;;5044563;29;20047;-69
2021/08/02 05:08:07;;;;;;;13.48;12.57;;;12.40;86.70;;;;;;5048658;29;20041;-69
2021/08/02 05:10:39;;;;;;;13.90;12.80;;;12.50;86.90;;;;;;5048072;29;20048;-69
2021/08/02 05:13:11;;;;;;;14.50;13.40;;;12.60;87.10;;;;;;5046354;29;20117;-69
2021/08/02 05:15:43;;;;;;;14.60;13.57;;;12.70;88.00;;;;;;5049203;29;20116;-69
2021/08/02 05:18:15;;;;;;;14.75;13.65;;;12.80;87.50;;;;;;5044347;29;20060;-69
2021/08/02 05:20:47;;;;;;;14.00;12.90;;;13.00;87.90;;;;;;5049199;29;20048;-69
2021/08/02 05:23:19;;;;;;;14.85;13.65;;;13.10;88.30;;;;;;5047729;29;20078;-69
2021/08/02 05:25:51;;;;;;;15.10;14.10;;;13.20;88.40;;;;;;5046430;29;20108;-70
2021/08/02 05:28:23;;;;;;;14.98;13.88;;;13.20;88.70;;;;;;5046218;29;20053;-70
2021/08/02 05:30:55;;;;;;;14.93;13.80;;;13.20;88.60;;;;;;5047416;29;20073;-69
2021/08/02 05:33:29;;;;;;;15.68;14.25;;;13.20;89.40;;;;;;5044504;29;20080;-69
2021/08/02 05:36:03;;;;;;;14.45;13.45;;;13.20;89.10;;;;;;5045846;29;20100;-69
2021/08/02 05:38:35;;;;;;;14.43;13.32;;;13.10;88.80;;;;;;5045593;29;20049;-70
2021/08/02 05:41:07;;;;;;;14.20;13.10;;;13.10;88.60;;;;;;5047976;29;20124;-69
2021/08/02 05:43:39;;;;;;;14.23;13.23;;;13.10;88.80;;;;;;5050989;29;20049;-69
2021/08/02 05:46:11;;;;;;;14.40;13.40;;;13.20;89.00;;;;;;5045634;29;20122;-69
2021/08/02 05:48:43;;;;;;;14.65;13.43;;;13.30;88.50;;;;;;5048243;29;20080;-69
2021/08/02 05:51:16;;;;;;;14.25;13.25;;;13.30;88.20;;;;;;5048498;29;20053;-69
2021/08/02 05:53:47;;;;;;;14.50;13.50;;;13.40;87.90;;;;;;5046926;29;20539;-70
2021/08/02 05:56:19;;;;;;;14.40;13.30;;;13.60;87.70;;;;;;5031860;29;20143;-69
2021/08/02 05:58:52;;;;;;;13.65;12.65;;;13.70;87.40;;;;;;5044911;29;20044;-70
2021/08/02 06:01:24;;;;;;;13.77;12.77;;;13.60;87.20;;;;;;5047269;29;20385;-69
2021/08/02 06:03:56;;;;;;;13.57;12.57;;;13.70;87.10;;;;;;5051309;29;20555;-69
2021/08/02 06:06:28;;;;;;;13.77;12.77;;;13.70;87.20;;;;;;5035525;29;20055;-69
2021/08/02 06:09:00;;;;;;;14.02;13.02;;;13.70;87.50;;;;;;5048071;29;20072;-68
2021/08/02 06:11:32;;;;;;;14.40;13.40;;;13.70;87.60;;;;;;5050193;29;20049;-70
2021/08/02 06:14:04;;;;;;;14.60;13.50;;;13.70;87.90;;;;;;5047127;29;20075;-69
2021/08/02 06:16:36;;;;;;;14.43;13.23;;;13.70;88.10;;;;;;5007028;29;20056;-70
2021/08/02 06:19:08;;;;;;;14.07;12.98;;;13.70;87.90;;;;;;5052217;29;20056;-71
2021/08/02 06:21:40;;;;;;;14.45;13.23;;;13.70;87.70;;;;;;5047514;29;20101;-70
2021/08/02 06:24:12;;;;;;;14.52;13.43;;;13.70;87.30;;;;;;5048340;29;20484;-70
2021/08/02 06:26:44;;;;;;;14.20;13.10;;;13.80;87.40;;;;;;5047167;29;20056;-70
2021/08/02 06:29:16;;;;;;;14.25;13.25;;;13.80;87.30;;;;;;5049490;29;20128;-70
2021/08/02 06:31:48;;;;;;;15.18;13.98;;;13.80;87.30;;;;;;5047015;29;20041;-69
2021/08/02 06:34:20;;;;;;;13.88;12.88;;;13.80;87.20;;;;;;5033896;29;20113;-69
2021/08/02 06:36:52;;;;;;;14.43;13.23;;;13.90;87.30;;;;;;5045551;29;20145;-69
2021/08/02 06:39:23;;;;;;;14.18;13.07;;;13.90;87.10;;;;;;5051207;29;20101;-69
2021/08/02 06:41:55;;;;;;;13.90;12.90;;;14.00;87.10;;;;;;5046654;29;20049;-70
2021/08/02 06:44:27;;;;;;;14.02;12.93;;;14.00;86.90;;;;;;5031058;29;20076;-69
2021/08/02 06:46:59;;;;;;;13.95;12.95;;;14.10;86.70;;;;;;5044538;29;20600;-69
2021/08/02 06:49:31;;;;;;;13.57;12.57;;;14.20;86.90;;;;;;5050566;29;20685;-69
2021/08/02 06:52:04;;;;;;;13.98;12.98;;;14.20;86.90;;;;;;5043309;29;20080;-69
2021/08/02 06:54:36;;;;;;;14.50;13.40;;;14.30;87.00;;;;;;5050723;29;20104;-69
2021/08/02 06:57:08;;;;;;;14.02;12.98;;;14.30;86.40;;;;;;5047490;29;20326;-69
2021/08/02 06:59:40;;;;;;;14.05;13.00;;;14.30;85.40;;;;;;5053688;29;20511;-69
2021/08/02 07:02:12;;;;;;;13.52;12.52;;;14.30;85.50;;;;;;5048038;29;20048;-69
2021/08/02 07:04:44;;;;;;;14.00;13.00;;;14.40;85.50;;;;;;5034903;29;20045;-70
2021/08/02 07:07:16;;;;;;;13.93;12.93;;;14.40;85.60;;;;;;5047354;29;20367;-70
2021/08/02 07:09:48;;;;;;;14.38;13.38;;;14.40;85.30;;;;;;5047246;29;20350;-71
2021/08/02 07:12:20;;;;;;;13.70;12.70;;;14.60;84.80;;;;;;5046654;29;20052;-71
2021/08/02 07:14:51;;;;;;;14.65;13.45;;;14.70;84.70;;;;;;5044690;29;20156;-70
2021/08/02 07:17:23;;;;;;;15.27;14.20;;;14.80;84.00;;;;;;5046516;29;20064;-71
2021/08/02 07:19:55;;;;;;;15.52;14.52;;;15.00;83.60;;;;;;5048147;29;20069;-70
2021/08/02 07:22:27;;;;;;;14.90;13.75;;;15.20;83.20;;;;;;5044293;29;20045;-70
2021/08/02 07:24:59;;;;;;;15.15;14.10;;;15.50;82.20;;;;;;5044883;29;20045;-70
2021/08/02 07:27:31;;;;;;;14.23;13.10;;;15.70;79.90;;;;;;5046522;29;20187;-71
2021/08/02 07:30:04;;;;;;;14.52;13.52;;;15.90;79.70;;;;;;5047969;29;20128;-71
2021/08/02 07:32:37;;;;;;;14.30;13.27;;;16.00;81.50;;;;;;5046691;29;20073;-71
2021/08/02 07:35:10;;;;;;;15.00;13.73;;;16.20;80.90;;;;;;5047128;29;20105;-70
2021/08/02 07:37:42;;;;;;;14.93;13.85;;;16.40;79.80;;;;;;5047927;29;20056;-70
2021/08/02 07:40:15;;;;;;;15.38;14.27;;;16.60;79.40;;;;;;5048918;29;20088;-71
2021/08/02 07:42:48;;;;;;;15.18;13.77;;;16.70;80.40;;;;;;5048363;29;20137;-70
2021/08/02 07:45:20;;;;;;;15.07;14.05;;;16.80;81.10;;;;;;5046506;29;20531;-70
2021/08/02 07:47:52;;;;;;;15.00;13.90;;;17.00;79.00;;;;;;5033754;29;20523;-71
2021/08/02 07:50:24;;;;;;;15.18;14.05;;;17.20;79.10;;;;;;5043916;29;20049;-70
2021/08/02 07:52:56;;;;;;;14.68;13.68;;;17.30;76.80;;;;;;5047126;29;20055;-70
2021/08/02 07:55:28;;;;;;;15.43;14.18;;;17.30;78.10;;;;;;5048750;29;20572;-69
2021/08/02 07:58:00;;;;;;;15.07;14.05;;;17.50;78.20;;;;;;5049508;29;20052;-70
2021/08/02 08:00:32;;;;;;;14.88;13.68;;;17.60;77.20;;;;;;5048132;29;20140;-71
2021/08/02 08:03:04;;;;;;;15.18;14.07;;;17.70;75.20;;;;;;5047007;29;20044;-69
2021/08/02 08:05:36;;;;;;;15.35;14.35;;;17.80;75.30;;;;;;5041922;29;20704;-70
2021/08/02 08:08:08;;;;;;;15.95;14.85;;;17.90;75.70;;;;;;5046475;29;20104;-70
2021/08/02 08:10:40;;;;;;;15.57;14.48;;;18.10;75.80;;;;;;5047316;29;20464;-70
2021/08/02 08:13:12;;;;;;;15.57;14.38;;;18.20;74.50;;;;;;5046824;29;20084;-70
2021/08/02 08:15:46;;;;;;;15.80;14.70;;;18.30;74.90;;;;;;5047840;29;20747;-71
2021/08/02 08:18:18;;;;;;;15.43;14.32;;;18.40;74.90;;;;;;5046708;29;20135;-71
2021/08/02 08:20:50;;;;;;;15.13;14.02;;;18.50;73.40;;;;;;5047569;29;20999;-70
2021/08/02 08:23:22;;;;;;;15.35;14.35;;;18.60;73.00;;;;;;5047755;29;20136;-71
2021/08/02 08:25:54;;;;;;;15.02;13.93;;;18.70;71.20;;;;;;5047056;29;20100;-70
2021/08/02 08:28:26;;;;;;;15.48;14.38;;;18.80;70.90;;;;;;5045330;29;20116;-71
2021/08/02 08:30:58;;;;;;;15.77;14.68;;;18.90;71.10;;;;;;5045963;29;20538;-70
2021/08/02 08:33:31;;;;;;;15.70;14.60;;;19.00;74.20;;;;;;5048512;29;20045;-71
2021/08/02 08:36:03;;;;;;;15.90;14.80;;;19.20;70.90;;;;;;5047150;29;20076;-71
2021/08/02 08:38:35;;;;;;;16.70;15.50;;;19.30;71.20;;;;;;5047525;29;20105;-70
2021/08/02 08:41:07;;;;;;;16.77;15.57;;;19.40;70.10;;;;;;5049409;29;20523;-70
2021/08/02 08:43:40;;;;;;;16.55;15.45;;;19.50;72.40;;;;;;5041928;29;20053;-71
2021/08/02 08:46:12;;;;;;;16.70;15.50;;;19.70;73.00;;;;;;5042572;29;20853;-71
2021/08/02 08:48:44;;;;;;;17.08;15.68;;;19.70;69.20;;;;;;5032272;29;20055;-71
2021/08/02 08:51:16;;;;;;;16.67;15.48;;;19.70;71.00;;;;;;5046408;29;20954;-70
2021/08/02 08:53:48;;;;;;;16.80;15.60;;;19.80;69.80;;;;;;5037936;29;20049;-70
2021/08/02 08:56:20;;;;;;;16.38;15.27;;;19.80;69.40;;;;;;5044260;29;20622;-70
2021/08/02 08:58:52;;;;;;;16.33;15.23;;;19.60;68.20;;;;;;5048192;29;20113;-71
2021/08/02 09:01:29;;;;;;;16.55;15.45;;;19.50;67.60;;;;;;5048048;29;20040;-71
2021/08/02 09:04:02;;;;;;;17.10;15.90;;;19.70;67.30;;;;;;5048330;29;20080;-71
2021/08/02 09:06:48;;;;;;;17.35;16.00;;;20.00;68.70;;;;;;5044170;29;20710;-72
2021/08/02 09:09:29;;;;;;;17.10;15.80;;;20.20;66.80;;;;;;5045397;29;20073;-71
2021/08/02 09:12:14;;;;;;;16.83;15.63;;;20.20;66.80;;;;;;5046905;29;20100;-71
2021/08/02 09:14:57;;;;;;;16.02;14.93;;;20.10;68.10;;;;;;5046848;29;20100;-70
2021/08/02 09:17:37;;;;;;;16.38;15.18;;;20.00;65.10;;;;;;5049119;29;20100;-70
2021/08/02 09:20:20;;;;;;;15.73;14.63;;;20.00;65.40;;;;;;5046239;29;20491;-70
2021/08/02 09:22:53;;;;;;;15.88;14.68;;;19.90;66.50;;;;;;5049585;29;20658;-70
2021/08/02 09:25:25;;;;;;;15.40;14.05;;;20.00;67.00;;;;;;5051837;29;20056;-70
2021/08/02 09:27:57;;;;;;;15.73;14.63;;;19.90;68.50;;;;;;5049527;29;20116;-70
2021/08/02 09:30:29;;;;;;;15.52;14.45;;;19.80;67.00;;;;;;5051321;29;20532;-71
2021/08/02 09:33:09;;;;;;;15.48;14.38;;;19.70;68.30;;;;;;5026368;29;20511;-72
2021/08/02 09:35:42;;;;;;;15.10;14.00;;;19.60;68.70;;;;;;5052556;29;20515;-69
2021/08/02 09:38:16;;;;;;;15.43;14.30;;;19.40;67.30;;;;;;5048600;29;20082;-71
2021/08/02 09:40:56;;;;;;;14.80;13.80;;;19.40;70.10;;;;;;5040797;29;20056;-71
2021/08/02 09:43:31;;;;;;;15.30;14.20;;;19.40;69.20;;;;;;5047816;29;20041;-70
2021/08/02 09:46:15;;;;;;;15.23;14.13;;;19.30;69.10;;;;;;5047397;29;20730;-70
2021/08/02 09:48:48;;;;;;;15.50;14.18;;;19.30;69.90;;;;;;5049795;29;20600;-70
2021/08/02 09:51:21;;;;;;;15.63;14.43;;;19.40;69.80;;;;;;5050529;29;20048;-71
2021/08/02 09:53:54;;;;;;;15.55;14.35;;;19.50;69.00;;;;;;5048983;29;20476;-71
2021/08/02 09:56:27;;;;;;;15.60;14.52;;;19.60;69.80;;;;;;5047894;29;20604;-70
2021/08/02 09:59:12;;;;;;;15.27;14.20;;;19.60;69.00;;;;;;5051864;29;20041;-71
2021/08/02 10:01:50;;;;;;;16.20;15.10;;;19.70;68.80;;;;;;5051558;29;20057;-71
2021/08/02 10:04:23;;;;;;;16.23;15.02;;;19.70;69.90;;;;;;5050340;29;20053;-71
2021/08/02 10:06:57;;;;;;;15.98;14.88;;;19.60;68.80;;;;;;5051268;29;20113;-71
2021/08/02 10:09:29;;;;;;;15.73;14.57;;;19.50;69.00;;;;;;5035315;29;20048;-71
2021/08/02 10:12:01;;;;;;;15.48;14.38;;;19.40;69.50;;;;;;5049200;29;20045;-71
2021/08/02 10:14:33;;;;;;;15.82;14.73;;;19.40;69.10;;;;;;5050204;29;20052;-72
2021/08/02 10:17:10;;;;;;;15.50;14.40;;;19.30;68.80;;;;;;5046901;29;20056;-71
2021/08/02 10:19:54;;;;;;;15.10;14.00;;;19.30;67.00;;;;;;5049283;29;20056;-70
2021/08/02 10:22:25;;;;;;;15.35;14.18;;;19.20;68.90;;;;;;5049873;29;20105;-70
2021/08/02 10:24:58;;;;;;;14.57;13.38;;;19.20;69.00;;;;;;5033575;29;20215;-72
2021/08/02 10:27:31;;;;;;;15.68;14.48;;;19.10;69.60;;;;;;5047765;29;20116;-71
2021/08/02 10:30:23;;;;;;;15.15;14.13;;;19.10;70.70;;;;;;5047583;29;20193;-71
2021/08/02 10:32:56;;;;;;;14.95;13.85;;;19.10;69.80;;;;;;5049339;29;20041;-71
2021/08/02 10:35:37;;;;;;;14.73;13.73;;;19.00;69.30;;;;;;5047013;29;20533;-71
2021/08/02 10:38:14;;;;;;;14.80;13.73;;;19.00;69.00;;;;;;5039669;29;20060;-71
2021/08/02 10:40:53;;;;;;;14.85;13.75;;;18.90;69.60;;;;;;5045263;29;20041;-71
2021/08/02 10:43:42;;;;;;;15.27;14.05;;;18.90;69.80;;;;;;5050560;29;20048;-71
2021/08/02 10:46:20;;;;;;;15.63;14.43;;;18.90;69.70;;;;;;5045633;29;20116;-71
2021/08/02 10:49:26;;;;;;;14.60;13.50;;;18.90;70.00;;;;;;5044692;29;20811;-71
2021/08/02 10:51:59;;;;;;;15.65;14.55;;;18.80;68.90;;;;;;5040303;29;20974;-71
2021/08/02 10:54:39;;;;;;;15.48;14.38;;;18.80;68.60;;;;;;5049283;29;20089;-71
2021/08/02 10:57:14;;;;;;;15.18;14.07;;;18.80;69.10;;;;;;5050115;29;20049;-71
2021/08/02 10:59:46;;;;;;;14.77;13.68;;;18.80;70.30;;;;;;5047696;29;20496;-72
2021/08/02 11:02:20;;;;;;;15.55;14.38;;;18.80;69.20;;;;;;5049466;29;20384;-71
2021/08/02 11:04:54;;;;;;;15.77;14.57;;;18.80;70.10;;;;;;5048844;29;20124;-71
2021/08/02 11:07:31;;;;;;;15.98;14.70;;;18.90;70.50;;;;;;5048913;29;20088;-72
2021/08/02 11:10:06;;;;;;;15.75;14.65;;;18.90;72.20;;;;;;5048132;29;20460;-72
2021/08/02 11:12:47;;;;;;;15.65;14.55;;;18.90;74.10;;;;;;5048178;29;20101;-72
2021/08/02 11:15:19;;;;;;;15.30;14.20;;;19.00;73.50;;;;;;5046830;29;20115;-72
2021/08/02 11:17:54;;;;;;;15.65;14.45;;;19.10;72.70;;;;;;5048633;29;20076;-72
2021/08/02 11:20:27;;;;;;;15.43;14.32;;;19.30;71.30;;;;;;5036722;29;20077;-73
2021/08/02 11:22:59;;;;;;;16.30;14.95;;;19.50;71.40;;;;;;5034446;29;20118;-72
2021/08/02 11:25:34;;;;;;;16.55;15.45;;;19.80;70.80;;;;;;5047770;29;20742;-72
2021/08/02 11:28:06;;;;;;;15.98;14.77;;;20.00;71.70;;;;;;5045554;29;20060;-72
2021/08/02 11:30:50;;;;;;;16.77;15.48;;;20.30;71.00;;;;;;5048384;29;20077;-72
2021/08/02 11:33:32;;;;;;;15.90;14.80;;;20.40;69.30;;;;;;5045431;29;20104;-72
2021/08/02 11:36:05;;;;;;;16.45;15.35;;;20.20;69.50;;;;;;5047263;29;20068;-71
2021/08/02 11:38:39;;;;;;;16.80;15.60;;;20.10;69.50;;;;;;5047086;29;20163;-72
2021/08/02 11:41:11;;;;;;;15.93;14.63;;;20.00;68.00;;;;;;5046644;29;20079;-71
2021/08/02 11:43:45;;;;;;;15.57;14.48;;;19.90;67.50;;;;;;5046206;29;20065;-71
2021/08/02 11:46:17;;;;;;;15.15;14.07;;;19.80;69.00;;;;;;5046347;29;20076;-73
2021/08/02 11:48:49;;;;;;;15.82;14.68;;;19.90;68.60;;;;;;5048797;29;20053;-71
2021/08/02 11:51:21;;;;;;;15.48;14.38;;;20.00;68.30;;;;;;5045383;29;20052;-71
2021/08/02 11:53:53;;;;;;;15.38;14.27;;;20.10;68.60;;;;;;5047649;29;20053;-71
2021/08/02 11:56:32;;;;;;;16.15;15.05;;;20.10;68.80;;;;;;5045965;29;20136;-71
2021/08/02 11:59:04;;;;;;;16.20;15.00;;;20.30;66.40;;;;;;5018990;29;20061;-71
2021/08/02 12:01:45;;;;;;;16.10;14.90;;;20.50;66.50;;;;;;5049746;29;20447;-72
2021/08/02 12:04:18;;;;;;;16.08;14.98;;;20.70;67.50;;;;;;5046728;29;20048;-72
2021/08/02 12:06:53;;;;;;;16.08;14.93;;;20.90;65.70;;;;;;5046042;29;20080;-72
2021/08/02 12:09:34;;;;;;;16.30;15.13;;;21.10;65.20;;;;;;5046402;29;20037;-70
2021/08/02 12:12:07;;;;;;;16.30;15.20;;;21.40;61.10;;;;;;5047937;29;20049;-70
2021/08/02 12:14:39;;;;;;;15.82;14.57;;;21.50;64.80;;;;;;5046887;29;20045;-70
2021/08/02 12:17:11;;;;;;;15.48;14.43;;;21.30;62.80;;;;;;5045944;29;20147;-71
2021/08/02 12:19:43;;;;;;;16.23;15.13;;;21.10;63.70;;;;;;5029923;29;20049;-70
2021/08/02 12:22:17;;;;;;;15.30;14.10;;;21.30;61.90;;;;;;5046526;29;20060;-70
2021/08/02 12:24:52;;;;;;;15.77;14.60;;;21.10;64.10;;;;;;5034798;29;20048;-70
2021/08/02 12:27:25;;;;;;;15.85;14.75;;;21.00;66.20;;;;;;5047697;29;20135;-70
2021/08/02 12:30:13;;;;;;;16.38;15.18;;;20.90;66.70;;;;;;5048028;29;20049;-70
2021/08/02 12:32:46;;;;;;;16.08;14.90;;;20.90;68.20;;;;;;5029520;29;20045;-70
2021/08/02 12:35:18;;;;;;;16.27;15.07;;;20.90;68.20;;;;;;5044818;29;20132;-71
2021/08/02 12:37:50;;;;;;;15.75;14.65;;;20.90;68.90;;;;;;5029678;29;20052;-72
2021/08/02 12:40:22;;;;;;;15.90;14.80;;;20.80;66.70;;;;;;5044484;29;20057;-70
2021/08/02 12:42:54;;;;;;;15.82;14.55;;;21.10;68.40;;;;;;5050808;29;20052;-71
2021/08/02 12:45:26;;;;;;;15.32;14.18;;;21.40;67.00;;;;;;5047394;29;20587;-71
2021/08/02 12:47:58;;;;;;;15.02;13.95;;;21.40;66.10;;;;;;5049059;29;20108;-70
2021/08/02 12:50:30;;;;;;;15.32;14.23;;;21.20;64.30;;;;;;5039313;29;20092;-70
2021/08/02 12:53:02;;;;;;;15.40;14.30;;;21.20;63.30;;;;;;5046903;29;20117;-71
2021/08/02 12:55:34;;;;;;;15.38;14.15;;;21.10;64.10;;;;;;5043580;29;20741;-71
2021/08/02 12:58:06;;;;;;;15.27;14.23;;;21.00;65.60;;;;;;5048297;29;20140;-71
2021/08/02 13:00:38;;;;;;;15.07;13.98;;;20.90;63.70;;;;;;5043757;29;20396;-71
2021/08/02 13:03:10;;;;;;;14.25;13.25;;;20.70;62.80;;;;;;5046292;29;20538;-71
2021/08/02 13:05:43;;;;;;;14.85;13.75;;;20.50;64.70;;;;;;5031341;29;20570;-71
2021/08/02 13:08:15;;;;;;;15.32;14.23;;;20.40;64.30;;;;;;5027852;29;20053;-71